الصفحة الرئيسية
METAR-TAF:

METAR-TAF

مطار :

مطار إنتشون الدولي

سيول-إنشيون, كوريا الجنوبية

دائرة عرض: 37-28N, خط طول: 126-27E, ارتفاع: 7 متر

مراقبة الطقس الحالي

تاريخ ووقت الإصدار 31 دقيقة قبل الساعة 07:30UTC
ريح 9 عقدة من الغرب
درجة الحرارة 17°درجة مئوية
الرطوبة 52%
ضغط 1019 hPa
الرؤية 10 كم أو أكثر
الغيوم لا تقل 1500 م ولا وجود لمزنة ركامية السحاب الأسود

METAR: RKSI 250730Z 28009KT CAVOK 17/07 Q1019 NOSIG

زمن: 17:01 (08:01 UTC)

توقعات

تاريخ ووقت الإصدار 3ساعات و 1 دقيقة قبل الساعة 05:00UTC
التوقعات صالحة من25 الساعة 06 UTC إلى 26 الساعة 12 UTC
ريح 8 عقدة من الشمال الغربي
الرؤية 10 كم أو أكثر
الغيوم لا تقل 1500 م ولا وجود لمزنة ركامية السحاب الأسود
أصبح
من 25 الساعة 21 UTC إلى 25 الساعة 22 UTC
ريح 5 عقدة من الشرق/الشمال الشرقي
الرؤية: 6000 متر
أصبح
من 26 الساعة 02 UTC إلى 26 الساعة 03 UTC
ريح 6 عقدة من الغرب
الرؤية 10 كم أو أكثر
الغيوم لا تقل 1500 م ولا وجود لمزنة ركامية السحاب الأسود

TAF: RKSI 250500Z 2506/2612 31008KT CAVOK TN10/2521Z TX18/2605Z BECMG 2521/2522 07005KT 6000 NSC BECMG 2602/2603 28006KT CAVOK

أرصاد الطقس والتوقعات من أكثر من 4000 مطار (تقارير الطقس للمطار METAR والتنبؤ بالطقس بالمطارTAF).

المحطات المتاحة هي النقط الصفراء والحمراء على الخريطة.

حرك المؤشر فوق النقطة لمعرفة اسم المحطة.

ثم انقر لمعرفة أرصاد وتوقعات الطقس.

لتغيير الخارطة: اضغط على الأزرار الخضراء مع رمز الصليب الأسود للتكبير. على الزر الأخضر مع شرطة للتصغير، أو على الأسهم الخضراء للخرائط المجاورة.


METAR-TAF: